sensor_id;sensor_type;location;lat;lon;timestamp;P1;durP1;ratioP1;P2;durP2;ratioP2
33347;SDS011;19707;51.158;17.124;2022-08-26T00:02:02;21.33;;;11.08;;
33347;SDS011;19707;51.158;17.124;2022-08-26T00:05:04;26.20;;;11.33;;
33347;SDS011;19707;51.158;17.124;2022-08-26T00:08:06;22.30;;;11.63;;
33347;SDS011;19707;51.158;17.124;2022-08-26T00:11:09;17.92;;;11.03;;
33347;SDS011;19707;51.158;17.124;2022-08-26T00:14:11;18.75;;;11.43;;
33347;SDS011;19707;51.158;17.124;2022-08-26T00:17:13;19.40;;;9.35;;
33347;SDS011;19707;51.158;17.124;2022-08-26T00:20:15;25.70;;;10.13;;
33347;SDS011;19707;51.158;17.124;2022-08-26T00:23:20;23.07;;;11.85;;
33347;SDS011;19707;51.158;17.124;2022-08-26T00:26:22;28.90;;;14.33;;
33347;SDS011;19707;51.158;17.124;2022-08-26T00:29:23;20.10;;;11.05;;
33347;SDS011;19707;51.158;17.124;2022-08-26T00:32:24;25.82;;;11.43;;
33347;SDS011;19707;51.158;17.124;2022-08-26T00:35:26;23.18;;;12.10;;
33347;SDS011;19707;51.158;17.124;2022-08-26T00:38:29;22.50;;;11.80;;
33347;SDS011;19707;51.158;17.124;2022-08-26T00:41:30;22.22;;;12.98;;
33347;SDS011;19707;51.158;17.124;2022-08-26T00:44:31;23.05;;;11.48;;
33347;SDS011;19707;51.158;17.124;2022-08-26T00:47:34;18.40;;;9.73;;
33347;SDS011;19707;51.158;17.124;2022-08-26T00:51:03;24.20;;;11.38;;
33347;SDS011;19707;51.158;17.124;2022-08-26T00:54:06;23.02;;;11.20;;
33347;SDS011;19707;51.158;17.124;2022-08-26T00:57:08;19.15;;;11.60;;
33347;SDS011;19707;51.158;17.124;2022-08-26T01:00:14;24.75;;;11.25;;
33347;SDS011;19707;51.158;17.124;2022-08-26T01:03:21;18.40;;;12.07;;
33347;SDS011;19707;51.158;17.124;2022-08-26T01:06:25;20.05;;;10.85;;
33347;SDS011;19707;51.158;17.124;2022-08-26T01:09:28;15.93;;;9.03;;
33347;SDS011;19707;51.158;17.124;2022-08-26T01:12:30;17.42;;;10.70;;
33347;SDS011;19707;51.158;17.124;2022-08-26T01:15:41;30.82;;;13.28;;
33347;SDS011;19707;51.158;17.124;2022-08-26T01:18:48;18.10;;;10.63;;
33347;SDS011;19707;51.158;17.124;2022-08-26T01:21:55;19.82;;;10.40;;
33347;SDS011;19707;51.158;17.124;2022-08-26T01:25:03;22.98;;;11.05;;
33347;SDS011;19707;51.158;17.124;2022-08-26T01:28:06;18.82;;;12.05;;
33347;SDS011;19707;51.158;17.124;2022-08-26T01:31:13;20.60;;;11.15;;
33347;SDS011;19707;51.158;17.124;2022-08-26T01:34:21;22.77;;;11.70;;
33347;SDS011;19707;51.158;17.124;2022-08-26T01:37:26;23.75;;;11.30;;
33347;SDS011;19707;51.158;17.124;2022-08-26T01:40:33;17.77;;;9.50;;
33347;SDS011;19707;51.158;17.124;2022-08-26T01:46:38;20.88;;;10.90;;
33347;SDS011;19707;51.158;17.124;2022-08-26T01:49:40;16.97;;;10.35;;
33347;SDS011;19707;51.158;17.124;2022-08-26T01:52:44;24.40;;;11.03;;
33347;SDS011;19707;51.158;17.124;2022-08-26T01:55:47;26.70;;;11.90;;
33347;SDS011;19707;51.158;17.124;2022-08-26T01:58:54;20.08;;;11.38;;
33347;SDS011;19707;51.158;17.124;2022-08-26T02:01:58;25.10;;;13.62;;
33347;SDS011;19707;51.158;17.124;2022-08-26T02:05:00;18.77;;;10.82;;
33347;SDS011;19707;51.158;17.124;2022-08-26T02:08:05;20.50;;;10.18;;
33347;SDS011;19707;51.158;17.124;2022-08-26T02:11:07;19.65;;;10.38;;
33347;SDS011;19707;51.158;17.124;2022-08-26T02:14:10;19.42;;;9.90;;
33347;SDS011;19707;51.158;17.124;2022-08-26T02:17:16;13.18;;;10.08;;
33347;SDS011;19707;51.158;17.124;2022-08-26T02:20:19;18.20;;;11.20;;
33347;SDS011;19707;51.158;17.124;2022-08-26T02:23:21;16.90;;;10.43;;
33347;SDS011;19707;51.158;17.124;2022-08-26T02:26:23;16.05;;;10.00;;
33347;SDS011;19707;51.158;17.124;2022-08-26T02:29:28;15.25;;;9.80;;
33347;SDS011;19707;51.158;17.124;2022-08-26T02:32:35;17.42;;;11.05;;
33347;SDS011;19707;51.158;17.124;2022-08-26T02:35:36;17.32;;;9.13;;
33347;SDS011;19707;51.158;17.124;2022-08-26T02:38:41;14.60;;;9.65;;
33347;SDS011;19707;51.158;17.124;2022-08-26T02:41:43;19.12;;;9.90;;
33347;SDS011;19707;51.158;17.124;2022-08-26T02:44:46;16.95;;;8.25;;
33347;SDS011;19707;51.158;17.124;2022-08-26T02:47:50;11.95;;;8.78;;
33347;SDS011;19707;51.158;17.124;2022-08-26T02:50:52;15.32;;;9.18;;
33347;SDS011;19707;51.158;17.124;2022-08-26T02:53:53;13.55;;;9.58;;
33347;SDS011;19707;51.158;17.124;2022-08-26T02:56:54;22.17;;;9.53;;
33347;SDS011;19707;51.158;17.124;2022-08-26T02:59:56;18.70;;;9.20;;
33347;SDS011;19707;51.158;17.124;2022-08-26T03:02:57;12.50;;;9.68;;
33347;SDS011;19707;51.158;17.124;2022-08-26T03:05:59;14.23;;;8.93;;
33347;SDS011;19707;51.158;17.124;2022-08-26T03:09:00;15.60;;;8.33;;
33347;SDS011;19707;51.158;17.124;2022-08-26T03:12:02;13.25;;;7.92;;
33347;SDS011;19707;51.158;17.124;2022-08-26T03:15:06;17.23;;;8.20;;
33347;SDS011;19707;51.158;17.124;2022-08-26T03:18:09;15.32;;;9.18;;
33347;SDS011;19707;51.158;17.124;2022-08-26T03:21:11;17.02;;;8.00;;
33347;SDS011;19707;51.158;17.124;2022-08-26T03:24:15;14.38;;;8.20;;
33347;SDS011;19707;51.158;17.124;2022-08-26T03:27:17;14.93;;;9.08;;
33347;SDS011;19707;51.158;17.124;2022-08-26T03:30:19;16.48;;;7.53;;
33347;SDS011;19707;51.158;17.124;2022-08-26T03:33:40;11.28;;;7.65;;
33347;SDS011;19707;51.158;17.124;2022-08-26T03:36:42;14.07;;;8.65;;
33347;SDS011;19707;51.158;17.124;2022-08-26T03:39:44;11.95;;;8.20;;
33347;SDS011;19707;51.158;17.124;2022-08-26T03:42:46;14.90;;;9.30;;
33347;SDS011;19707;51.158;17.124;2022-08-26T03:45:49;12.95;;;9.40;;
33347;SDS011;19707;51.158;17.124;2022-08-26T03:48:50;12.45;;;9.45;;
33347;SDS011;19707;51.158;17.124;2022-08-26T03:51:51;15.38;;;8.93;;
33347;SDS011;19707;51.158;17.124;2022-08-26T03:54:52;19.12;;;10.32;;
33347;SDS011;19707;51.158;17.124;2022-08-26T03:57:54;14.70;;;8.83;;
33347;SDS011;19707;51.158;17.124;2022-08-26T04:00:55;14.28;;;8.23;;
33347;SDS011;19707;51.158;17.124;2022-08-26T04:03:57;16.48;;;8.63;;
33347;SDS011;19707;51.158;17.124;2022-08-26T04:06:59;17.73;;;8.08;;
33347;SDS011;19707;51.158;17.124;2022-08-26T04:10:01;16.15;;;8.78;;
33347;SDS011;19707;51.158;17.124;2022-08-26T04:13:04;19.10;;;9.45;;
33347;SDS011;19707;51.158;17.124;2022-08-26T04:16:05;17.00;;;9.10;;
33347;SDS011;19707;51.158;17.124;2022-08-26T04:19:07;16.27;;;8.03;;
33347;SDS011;19707;51.158;17.124;2022-08-26T04:22:10;18.37;;;9.15;;
33347;SDS011;19707;51.158;17.124;2022-08-26T04:25:12;14.18;;;9.30;;
33347;SDS011;19707;51.158;17.124;2022-08-26T04:28:13;11.80;;;8.50;;
33347;SDS011;19707;51.158;17.124;2022-08-26T04:31:15;13.55;;;9.10;;
33347;SDS011;19707;51.158;17.124;2022-08-26T04:34:17;15.15;;;9.10;;
33347;SDS011;19707;51.158;17.124;2022-08-26T04:37:19;12.68;;;8.98;;
33347;SDS011;19707;51.158;17.124;2022-08-26T04:40:20;15.72;;;9.93;;
33347;SDS011;19707;51.158;17.124;2022-08-26T04:43:23;16.67;;;9.73;;
33347;SDS011;19707;51.158;17.124;2022-08-26T04:46:27;19.65;;;10.20;;
33347;SDS011;19707;51.158;17.124;2022-08-26T04:49:29;17.05;;;10.88;;
33347;SDS011;19707;51.158;17.124;2022-08-26T04:52:30;13.15;;;10.23;;
33347;SDS011;19707;51.158;17.124;2022-08-26T04:55:31;20.77;;;12.20;;
33347;SDS011;19707;51.158;17.124;2022-08-26T04:58:33;19.27;;;11.95;;
33347;SDS011;19707;51.158;17.124;2022-08-26T05:01:34;23.52;;;14.10;;
33347;SDS011;19707;51.158;17.124;2022-08-26T05:04:36;22.00;;;14.13;;
33347;SDS011;19707;51.158;17.124;2022-08-26T05:07:38;23.00;;;15.32;;
33347;SDS011;19707;51.158;17.124;2022-08-26T05:10:41;14.40;;;11.95;;
33347;SDS011;19707;51.158;17.124;2022-08-26T05:13:45;25.02;;;16.12;;
33347;SDS011;19707;51.158;17.124;2022-08-26T05:16:47;27.58;;;15.63;;
33347;SDS011;19707;51.158;17.124;2022-08-26T05:19:48;32.28;;;18.77;;
33347;SDS011;19707;51.158;17.124;2022-08-26T05:22:50;35.20;;;18.48;;
33347;SDS011;19707;51.158;17.124;2022-08-26T05:25:52;26.27;;;18.17;;
33347;SDS011;19707;51.158;17.124;2022-08-26T05:28:55;34.27;;;18.92;;
33347;SDS011;19707;51.158;17.124;2022-08-26T05:31:57;38.13;;;18.90;;
33347;SDS011;19707;51.158;17.124;2022-08-26T05:35:00;27.05;;;17.40;;
33347;SDS011;19707;51.158;17.124;2022-08-26T05:38:02;30.20;;;17.30;;
33347;SDS011;19707;51.158;17.124;2022-08-26T05:44:32;22.90;;;16.07;;
33347;SDS011;19707;51.158;17.124;2022-08-26T05:47:34;33.38;;;15.53;;
33347;SDS011;19707;51.158;17.124;2022-08-26T05:50:39;38.00;;;16.67;;
33347;SDS011;19707;51.158;17.124;2022-08-26T05:53:43;31.85;;;16.52;;
33347;SDS011;19707;51.158;17.124;2022-08-26T05:56:45;25.68;;;15.65;;
33347;SDS011;19707;51.158;17.124;2022-08-26T05:59:46;32.45;;;16.65;;
33347;SDS011;19707;51.158;17.124;2022-08-26T06:02:49;30.50;;;16.82;;
33347;SDS011;19707;51.158;17.124;2022-08-26T06:05:51;23.32;;;15.25;;
33347;SDS011;19707;51.158;17.124;2022-08-26T06:08:52;25.25;;;15.08;;
33347;SDS011;19707;51.158;17.124;2022-08-26T06:11:54;25.12;;;14.38;;
33347;SDS011;19707;51.158;17.124;2022-08-26T06:14:57;22.07;;;13.13;;
33347;SDS011;19707;51.158;17.124;2022-08-26T06:17:58;28.07;;;13.05;;
33347;SDS011;19707;51.158;17.124;2022-08-26T06:21:00;23.32;;;12.78;;
33347;SDS011;19707;51.158;17.124;2022-08-26T06:24:14;18.67;;;12.35;;
33347;SDS011;19707;51.158;17.124;2022-08-26T06:27:34;24.67;;;12.98;;
33347;SDS011;19707;51.158;17.124;2022-08-26T06:30:39;23.10;;;11.90;;
33347;SDS011;19707;51.158;17.124;2022-08-26T06:33:42;16.48;;;12.28;;
33347;SDS011;19707;51.158;17.124;2022-08-26T06:36:44;19.30;;;13.08;;
33347;SDS011;19707;51.158;17.124;2022-08-26T06:39:46;16.65;;;12.23;;
33347;SDS011;19707;51.158;17.124;2022-08-26T06:42:48;19.23;;;12.07;;
33347;SDS011;19707;51.158;17.124;2022-08-26T06:45:49;21.90;;;12.45;;
33347;SDS011;19707;51.158;17.124;2022-08-26T06:48:51;20.88;;;12.13;;
33347;SDS011;19707;51.158;17.124;2022-08-26T06:51:55;20.70;;;12.50;;
33347;SDS011;19707;51.158;17.124;2022-08-26T06:54:59;24.57;;;11.97;;
33347;SDS011;19707;51.158;17.124;2022-08-26T06:58:00;18.25;;;11.30;;
33347;SDS011;19707;51.158;17.124;2022-08-26T07:01:01;16.97;;;11.38;;
33347;SDS011;19707;51.158;17.124;2022-08-26T07:04:05;19.90;;;12.03;;
33347;SDS011;19707;51.158;17.124;2022-08-26T07:07:07;21.50;;;11.88;;
33347;SDS011;19707;51.158;17.124;2022-08-26T07:10:08;22.75;;;12.10;;
33347;SDS011;19707;51.158;17.124;2022-08-26T07:13:10;23.87;;;11.78;;
33347;SDS011;19707;51.158;17.124;2022-08-26T07:16:12;26.48;;;12.20;;
33347;SDS011;19707;51.158;17.124;2022-08-26T07:19:17;19.57;;;11.95;;
33347;SDS011;19707;51.158;17.124;2022-08-26T07:22:19;18.30;;;11.28;;
33347;SDS011;19707;51.158;17.124;2022-08-26T07:25:20;22.45;;;10.63;;
33347;SDS011;19707;51.158;17.124;2022-08-26T07:28:22;16.07;;;10.93;;
33347;SDS011;19707;51.158;17.124;2022-08-26T07:31:28;20.70;;;11.53;;
33347;SDS011;19707;51.158;17.124;2022-08-26T07:34:31;18.40;;;10.72;;
33347;SDS011;19707;51.158;17.124;2022-08-26T07:37:33;21.62;;;11.57;;
33347;SDS011;19707;51.158;17.124;2022-08-26T07:40:35;20.65;;;10.58;;
33347;SDS011;19707;51.158;17.124;2022-08-26T07:43:36;16.10;;;9.03;;
33347;SDS011;19707;51.158;17.124;2022-08-26T07:46:40;23.55;;;10.53;;
33347;SDS011;19707;51.158;17.124;2022-08-26T07:49:41;24.13;;;11.20;;
33347;SDS011;19707;51.158;17.124;2022-08-26T07:52:42;23.00;;;10.88;;
33347;SDS011;19707;51.158;17.124;2022-08-26T07:55:44;17.98;;;10.25;;
33347;SDS011;19707;51.158;17.124;2022-08-26T07:58:45;15.28;;;9.53;;
33347;SDS011;19707;51.158;17.124;2022-08-26T08:01:46;16.30;;;10.40;;
33347;SDS011;19707;51.158;17.124;2022-08-26T08:04:48;20.55;;;10.32;;
33347;SDS011;19707;51.158;17.124;2022-08-26T08:07:49;21.50;;;11.35;;
33347;SDS011;19707;51.158;17.124;2022-08-26T08:10:52;13.45;;;7.40;;
33347;SDS011;19707;51.158;17.124;2022-08-26T08:13:53;16.77;;;9.93;;
33347;SDS011;19707;51.158;17.124;2022-08-26T08:16:55;22.62;;;11.10;;
33347;SDS011;19707;51.158;17.124;2022-08-26T08:19:57;21.33;;;7.55;;
33347;SDS011;19707;51.158;17.124;2022-08-26T08:22:59;25.45;;;10.60;;
33347;SDS011;19707;51.158;17.124;2022-08-26T08:26:04;28.00;;;11.43;;
33347;SDS011;19707;51.158;17.124;2022-08-26T08:29:09;13.95;;;7.00;;
33347;SDS011;19707;51.158;17.124;2022-08-26T08:32:11;16.10;;;10.20;;
33347;SDS011;19707;51.158;17.124;2022-08-26T08:35:14;22.75;;;10.45;;
33347;SDS011;19707;51.158;17.124;2022-08-26T08:38:17;16.95;;;9.58;;
33347;SDS011;19707;51.158;17.124;2022-08-26T08:44:28;15.50;;;8.95;;
33347;SDS011;19707;51.158;17.124;2022-08-26T08:50:43;16.50;;;10.90;;
33347;SDS011;19707;51.158;17.124;2022-08-26T08:53:50;20.68;;;8.85;;
33347;SDS011;19707;51.158;17.124;2022-08-26T09:00:15;21.27;;;10.13;;
33347;SDS011;19707;51.158;17.124;2022-08-26T09:03:22;17.87;;;7.20;;
33347;SDS011;19707;51.158;17.124;2022-08-26T09:06:45;13.38;;;6.12;;
33347;SDS011;19707;51.158;17.124;2022-08-26T09:09:49;17.48;;;8.50;;
33347;SDS011;19707;51.158;17.124;2022-08-26T09:12:56;13.32;;;6.80;;
33347;SDS011;19707;51.158;17.124;2022-08-26T09:16:03;11.55;;;6.10;;
33347;SDS011;19707;51.158;17.124;2022-08-26T09:19:22;14.90;;;7.08;;
33347;SDS011;19707;51.158;17.124;2022-08-26T09:22:28;12.68;;;5.45;;
33347;SDS011;19707;51.158;17.124;2022-08-26T09:28:59;16.65;;;7.50;;
33347;SDS011;19707;51.158;17.124;2022-08-26T09:32:18;14.00;;;7.17;;
33347;SDS011;19707;51.158;17.124;2022-08-26T09:35:26;12.75;;;7.72;;
33347;SDS011;19707;51.158;17.124;2022-08-26T09:38:32;14.98;;;8.18;;
33347;SDS011;19707;51.158;17.124;2022-08-26T09:41:33;13.65;;;7.25;;
33347;SDS011;19707;51.158;17.124;2022-08-26T09:47:59;14.38;;;6.65;;
33347;SDS011;19707;51.158;17.124;2022-08-26T09:51:04;11.45;;;6.80;;
33347;SDS011;19707;51.158;17.124;2022-08-26T09:54:08;11.90;;;6.72;;
33347;SDS011;19707;51.158;17.124;2022-08-26T09:57:32;16.32;;;6.22;;
33347;SDS011;19707;51.158;17.124;2022-08-26T10:00:42;4.50;;;3.12;;
33347;SDS011;19707;51.158;17.124;2022-08-26T10:03:44;17.90;;;6.33;;
33347;SDS011;19707;51.158;17.124;2022-08-26T10:07:02;14.73;;;6.12;;
33347;SDS011;19707;51.158;17.124;2022-08-26T10:10:09;10.72;;;4.37;;
33347;SDS011;19707;51.158;17.124;2022-08-26T10:13:32;6.55;;;4.15;;
33347;SDS011;19707;51.158;17.124;2022-08-26T10:17:27;7.15;;;3.37;;
33347;SDS011;19707;51.158;17.124;2022-08-26T10:20:09;9.40;;;5.53;;
33347;SDS011;19707;51.158;17.124;2022-08-26T10:23:17;9.18;;;5.62;;
33347;SDS011;19707;51.158;17.124;2022-08-26T10:29:37;13.93;;;4.80;;
33347;SDS011;19707;51.158;17.124;2022-08-26T10:32:44;8.03;;;5.25;;
33347;SDS011;19707;51.158;17.124;2022-08-26T10:36:03;8.13;;;4.20;;
33347;SDS011;19707;51.158;17.124;2022-08-26T10:39:13;10.32;;;4.45;;
33347;SDS011;19707;51.158;17.124;2022-08-26T10:42:27;11.28;;;4.33;;
33347;SDS011;19707;51.158;17.124;2022-08-26T10:45:41;9.43;;;4.28;;
33347;SDS011;19707;51.158;17.124;2022-08-26T10:48:54;10.65;;;4.58;;
33347;SDS011;19707;51.158;17.124;2022-08-26T10:52:08;8.88;;;3.60;;
33347;SDS011;19707;51.158;17.124;2022-08-26T10:55:23;8.10;;;4.55;;
33347;SDS011;19707;51.158;17.124;2022-08-26T11:02:12;9.90;;;4.87;;
33347;SDS011;19707;51.158;17.124;2022-08-26T11:05:26;15.70;;;5.92;;
33347;SDS011;19707;51.158;17.124;2022-08-26T11:08:27;8.43;;;3.22;;
33347;SDS011;19707;51.158;17.124;2022-08-26T11:14:47;5.42;;;3.58;;
33347;SDS011;19707;51.158;17.124;2022-08-26T11:20:56;10.95;;;3.77;;
33347;SDS011;19707;51.158;17.124;2022-08-26T11:23:58;15.53;;;4.60;;
33347;SDS011;19707;51.158;17.124;2022-08-26T11:26:59;9.65;;;4.90;;
33347;SDS011;19707;51.158;17.124;2022-08-26T11:30:04;11.50;;;5.00;;
33347;SDS011;19707;51.158;17.124;2022-08-26T11:33:43;8.48;;;4.15;;
33347;SDS011;19707;51.158;17.124;2022-08-26T11:39:59;6.95;;;4.28;;
33347;SDS011;19707;51.158;17.124;2022-08-26T11:43:05;10.78;;;3.80;;
33347;SDS011;19707;51.158;17.124;2022-08-26T11:46:11;11.68;;;4.10;;
33347;SDS011;19707;51.158;17.124;2022-08-26T11:49:13;14.83;;;5.03;;
33347;SDS011;19707;51.158;17.124;2022-08-26T11:52:19;12.53;;;4.58;;
33347;SDS011;19707;51.158;17.124;2022-08-26T11:55:22;12.20;;;4.28;;
33347;SDS011;19707;51.158;17.124;2022-08-26T11:58:23;9.23;;;4.00;;
33347;SDS011;19707;51.158;17.124;2022-08-26T12:04:36;9.00;;;3.95;;
33347;SDS011;19707;51.158;17.124;2022-08-26T12:07:39;6.83;;;3.87;;
33347;SDS011;19707;51.158;17.124;2022-08-26T12:10:41;10.35;;;4.05;;
33347;SDS011;19707;51.158;17.124;2022-08-26T12:13:42;7.60;;;4.12;;
33347;SDS011;19707;51.158;17.124;2022-08-26T12:17:07;6.53;;;3.67;;
33347;SDS011;19707;51.158;17.124;2022-08-26T12:20:27;6.75;;;4.20;;
33347;SDS011;19707;51.158;17.124;2022-08-26T12:23:48;15.95;;;4.62;;
33347;SDS011;19707;51.158;17.124;2022-08-26T12:30:18;8.25;;;4.22;;
33347;SDS011;19707;51.158;17.124;2022-08-26T12:33:23;13.50;;;4.75;;
33347;SDS011;19707;51.158;17.124;2022-08-26T12:36:39;6.87;;;4.50;;
33347;SDS011;19707;51.158;17.124;2022-08-26T12:39:48;9.90;;;4.17;;
33347;SDS011;19707;51.158;17.124;2022-08-26T12:42:49;9.58;;;4.17;;
33347;SDS011;19707;51.158;17.124;2022-08-26T12:45:57;11.95;;;4.28;;
33347;SDS011;19707;51.158;17.124;2022-08-26T12:48:59;6.85;;;4.05;;
33347;SDS011;19707;51.158;17.124;2022-08-26T12:52:03;7.90;;;3.80;;
33347;SDS011;19707;51.158;17.124;2022-08-26T12:55:16;7.65;;;3.50;;
33347;SDS011;19707;51.158;17.124;2022-08-26T12:58:28;9.15;;;4.15;;
33347;SDS011;19707;51.158;17.124;2022-08-26T13:01:35;9.45;;;3.75;;
33347;SDS011;19707;51.158;17.124;2022-08-26T13:04:42;12.23;;;4.33;;
33347;SDS011;19707;51.158;17.124;2022-08-26T13:14:22;8.00;;;4.20;;
33347;SDS011;19707;51.158;17.124;2022-08-26T13:17:24;15.18;;;4.28;;
33347;SDS011;19707;51.158;17.124;2022-08-26T13:20:27;9.20;;;3.42;;
33347;SDS011;19707;51.158;17.124;2022-08-26T13:23:29;10.20;;;3.90;;
33347;SDS011;19707;51.158;17.124;2022-08-26T13:26:30;10.08;;;4.00;;
33347;SDS011;19707;51.158;17.124;2022-08-26T13:29:31;9.98;;;4.42;;
33347;SDS011;19707;51.158;17.124;2022-08-26T13:32:33;17.35;;;4.25;;
33347;SDS011;19707;51.158;17.124;2022-08-26T13:35:35;11.33;;;4.12;;
33347;SDS011;19707;51.158;17.124;2022-08-26T13:38:36;9.25;;;4.10;;
33347;SDS011;19707;51.158;17.124;2022-08-26T13:41:37;8.38;;;4.15;;
33347;SDS011;19707;51.158;17.124;2022-08-26T13:44:38;10.75;;;3.08;;
33347;SDS011;19707;51.158;17.124;2022-08-26T13:47:42;9.75;;;4.47;;
33347;SDS011;19707;51.158;17.124;2022-08-26T13:50:45;11.65;;;4.28;;
33347;SDS011;19707;51.158;17.124;2022-08-26T13:53:47;9.75;;;4.28;;
33347;SDS011;19707;51.158;17.124;2022-08-26T13:56:50;6.35;;;3.05;;
33347;SDS011;19707;51.158;17.124;2022-08-26T13:59:51;10.03;;;3.85;;
33347;SDS011;19707;51.158;17.124;2022-08-26T14:02:53;8.80;;;3.45;;
33347;SDS011;19707;51.158;17.124;2022-08-26T14:05:55;5.33;;;4.03;;
33347;SDS011;19707;51.158;17.124;2022-08-26T14:08:56;8.88;;;3.83;;
33347;SDS011;19707;51.158;17.124;2022-08-26T14:11:58;11.35;;;3.62;;
33347;SDS011;19707;51.158;17.124;2022-08-26T14:14:59;7.42;;;3.92;;
33347;SDS011;19707;51.158;17.124;2022-08-26T14:18:01;6.42;;;3.70;;
33347;SDS011;19707;51.158;17.124;2022-08-26T14:21:04;12.73;;;3.60;;
33347;SDS011;19707;51.158;17.124;2022-08-26T14:24:06;8.63;;;3.67;;
33347;SDS011;19707;51.158;17.124;2022-08-26T14:27:08;11.68;;;3.65;;
33347;SDS011;19707;51.158;17.124;2022-08-26T14:30:10;11.25;;;4.08;;
33347;SDS011;19707;51.158;17.124;2022-08-26T14:33:12;13.32;;;3.47;;
33347;SDS011;19707;51.158;17.124;2022-08-26T14:36:16;13.48;;;3.87;;
33347;SDS011;19707;51.158;17.124;2022-08-26T14:39:31;12.73;;;4.20;;
33347;SDS011;19707;51.158;17.124;2022-08-26T14:42:32;10.58;;;3.77;;
33347;SDS011;19707;51.158;17.124;2022-08-26T14:45:34;16.90;;;3.30;;
33347;SDS011;19707;51.158;17.124;2022-08-26T14:48:40;8.80;;;3.55;;
33347;SDS011;19707;51.158;17.124;2022-08-26T14:51:41;13.43;;;3.80;;
33347;SDS011;19707;51.158;17.124;2022-08-26T14:54:42;13.30;;;3.87;;
33347;SDS011;19707;51.158;17.124;2022-08-26T14:57:43;7.00;;;2.72;;
33347;SDS011;19707;51.158;17.124;2022-08-26T15:00:44;7.30;;;2.92;;
33347;SDS011;19707;51.158;17.124;2022-08-26T15:03:46;9.10;;;4.12;;
33347;SDS011;19707;51.158;17.124;2022-08-26T15:06:47;10.43;;;3.65;;
33347;SDS011;19707;51.158;17.124;2022-08-26T15:09:49;10.50;;;3.70;;
33347;SDS011;19707;51.158;17.124;2022-08-26T15:12:50;12.68;;;3.95;;
33347;SDS011;19707;51.158;17.124;2022-08-26T15:15:51;6.85;;;3.20;;
33347;SDS011;19707;51.158;17.124;2022-08-26T15:18:53;7.42;;;3.67;;
33347;SDS011;19707;51.158;17.124;2022-08-26T15:21:55;8.85;;;3.45;;
33347;SDS011;19707;51.158;17.124;2022-08-26T15:24:56;12.13;;;3.33;;
33347;SDS011;19707;51.158;17.124;2022-08-26T15:27:58;6.17;;;3.80;;
33347;SDS011;19707;51.158;17.124;2022-08-26T15:30:59;10.38;;;3.77;;
33347;SDS011;19707;51.158;17.124;2022-08-26T15:34:02;10.95;;;5.03;;
33347;SDS011;19707;51.158;17.124;2022-08-26T15:37:05;7.40;;;3.85;;
33347;SDS011;19707;51.158;17.124;2022-08-26T15:40:08;12.63;;;3.45;;
33347;SDS011;19707;51.158;17.124;2022-08-26T15:43:10;11.00;;;3.87;;
33347;SDS011;19707;51.158;17.124;2022-08-26T15:46:11;16.57;;;3.90;;
33347;SDS011;19707;51.158;17.124;2022-08-26T15:49:12;13.25;;;4.53;;
33347;SDS011;19707;51.158;17.124;2022-08-26T15:52:14;11.10;;;3.65;;
33347;SDS011;19707;51.158;17.124;2022-08-26T15:55:16;15.90;;;4.08;;
33347;SDS011;19707;51.158;17.124;2022-08-26T15:58:17;13.78;;;3.83;;
33347;SDS011;19707;51.158;17.124;2022-08-26T16:01:19;11.00;;;3.30;;
33347;SDS011;19707;51.158;17.124;2022-08-26T16:04:22;12.25;;;3.85;;
33347;SDS011;19707;51.158;17.124;2022-08-26T16:07:23;12.25;;;3.17;;
33347;SDS011;19707;51.158;17.124;2022-08-26T16:10:24;11.70;;;3.87;;
33347;SDS011;19707;51.158;17.124;2022-08-26T16:13:25;14.55;;;4.42;;
33347;SDS011;19707;51.158;17.124;2022-08-26T16:16:27;16.02;;;4.92;;
33347;SDS011;19707;51.158;17.124;2022-08-26T16:19:28;14.98;;;3.30;;
33347;SDS011;19707;51.158;17.124;2022-08-26T16:22:29;16.77;;;3.70;;
33347;SDS011;19707;51.158;17.124;2022-08-26T16:25:31;12.82;;;3.90;;
33347;SDS011;19707;51.158;17.124;2022-08-26T16:28:32;5.83;;;3.35;;
33347;SDS011;19707;51.158;17.124;2022-08-26T16:31:34;10.58;;;3.67;;
33347;SDS011;19707;51.158;17.124;2022-08-26T16:34:37;17.37;;;6.00;;
33347;SDS011;19707;51.158;17.124;2022-08-26T16:37:38;10.50;;;3.67;;
33347;SDS011;19707;51.158;17.124;2022-08-26T16:40:40;5.53;;;2.52;;
33347;SDS011;19707;51.158;17.124;2022-08-26T16:43:41;12.58;;;4.65;;
33347;SDS011;19707;51.158;17.124;2022-08-26T16:46:42;11.90;;;3.85;;
33347;SDS011;19707;51.158;17.124;2022-08-26T16:49:45;18.02;;;5.00;;
33347;SDS011;19707;51.158;17.124;2022-08-26T16:52:51;22.48;;;7.08;;
33347;SDS011;19707;51.158;17.124;2022-08-26T16:55:53;13.20;;;5.75;;
33347;SDS011;19707;51.158;17.124;2022-08-26T16:58:54;17.75;;;6.25;;
33347;SDS011;19707;51.158;17.124;2022-08-26T17:01:56;13.60;;;6.03;;
33347;SDS011;19707;51.158;17.124;2022-08-26T17:04:57;10.75;;;4.05;;
33347;SDS011;19707;51.158;17.124;2022-08-26T17:07:58;13.05;;;4.22;;
33347;SDS011;19707;51.158;17.124;2022-08-26T17:11:00;16.67;;;4.50;;
33347;SDS011;19707;51.158;17.124;2022-08-26T17:14:01;7.67;;;4.47;;
33347;SDS011;19707;51.158;17.124;2022-08-26T17:17:04;6.58;;;3.00;;
33347;SDS011;19707;51.158;17.124;2022-08-26T17:20:06;7.10;;;3.17;;
33347;SDS011;19707;51.158;17.124;2022-08-26T17:23:12;5.92;;;3.72;;
33347;SDS011;19707;51.158;17.124;2022-08-26T17:26:14;8.10;;;3.98;;
33347;SDS011;19707;51.158;17.124;2022-08-26T17:29:15;10.93;;;5.22;;
33347;SDS011;19707;51.158;17.124;2022-08-26T17:32:17;12.80;;;4.17;;
33347;SDS011;19707;51.158;17.124;2022-08-26T17:35:18;10.70;;;4.20;;
33347;SDS011;19707;51.158;17.124;2022-08-26T17:38:21;8.88;;;3.70;;
33347;SDS011;19707;51.158;17.124;2022-08-26T17:41:23;10.08;;;3.70;;
33347;SDS011;19707;51.158;17.124;2022-08-26T17:44:24;10.78;;;4.47;;
33347;SDS011;19707;51.158;17.124;2022-08-26T17:47:26;16.27;;;5.25;;
33347;SDS011;19707;51.158;17.124;2022-08-26T17:50:27;19.40;;;5.37;;
33347;SDS011;19707;51.158;17.124;2022-08-26T17:53:28;14.30;;;5.45;;
33347;SDS011;19707;51.158;17.124;2022-08-26T17:56:29;10.08;;;4.42;;
33347;SDS011;19707;51.158;17.124;2022-08-26T17:59:31;12.93;;;4.15;;
33347;SDS011;19707;51.158;17.124;2022-08-26T18:02:34;20.68;;;3.90;;
33347;SDS011;19707;51.158;17.124;2022-08-26T18:05:37;10.63;;;3.92;;
33347;SDS011;19707;51.158;17.124;2022-08-26T18:08:39;13.58;;;4.37;;
33347;SDS011;19707;51.158;17.124;2022-08-26T18:11:41;9.60;;;3.83;;
33347;SDS011;19707;51.158;17.124;2022-08-26T18:14:42;10.75;;;3.98;;
33347;SDS011;19707;51.158;17.124;2022-08-26T18:17:43;16.15;;;4.92;;
33347;SDS011;19707;51.158;17.124;2022-08-26T18:20:45;21.17;;;5.42;;
33347;SDS011;19707;51.158;17.124;2022-08-26T18:23:46;13.03;;;5.33;;
33347;SDS011;19707;51.158;17.124;2022-08-26T18:26:48;19.85;;;8.23;;
33347;SDS011;19707;51.158;17.124;2022-08-26T18:29:50;10.93;;;7.00;;
33347;SDS011;19707;51.158;17.124;2022-08-26T18:32:55;14.05;;;8.03;;
33347;SDS011;19707;51.158;17.124;2022-08-26T18:35:56;15.80;;;7.62;;
33347;SDS011;19707;51.158;17.124;2022-08-26T18:38:57;11.80;;;6.70;;
33347;SDS011;19707;51.158;17.124;2022-08-26T18:41:59;15.05;;;6.20;;
33347;SDS011;19707;51.158;17.124;2022-08-26T18:45:01;13.72;;;5.80;;